sensor_id;sensor_type;location;lat;lon;timestamp;temperature;humidity
7562;DHT22;3822;48.784;9.174;2023-02-28T00:01:31;2.50;53.40
7562;DHT22;3822;48.784;9.174;2023-02-28T00:03:57;2.40;53.50
7562;DHT22;3822;48.784;9.174;2023-02-28T00:06:24;2.40;53.60
7562;DHT22;3822;48.784;9.174;2023-02-28T00:08:50;2.40;53.80
7562;DHT22;3822;48.784;9.174;2023-02-28T00:11:16;2.30;53.80
7562;DHT22;3822;48.784;9.174;2023-02-28T00:13:44;2.30;53.80
7562;DHT22;3822;48.784;9.174;2023-02-28T00:16:18;2.30;53.80
7562;DHT22;3822;48.784;9.174;2023-02-28T00:18:47;2.30;53.90
7562;DHT22;3822;48.784;9.174;2023-02-28T00:21:14;2.30;54.00
7562;DHT22;3822;48.784;9.174;2023-02-28T00:23:41;2.30;54.00
7562;DHT22;3822;48.784;9.174;2023-02-28T00:26:07;2.30;54.20
7562;DHT22;3822;48.784;9.174;2023-02-28T00:28:33;2.20;54.20
7562;DHT22;3822;48.784;9.174;2023-02-28T00:31:00;2.20;54.30
7562;DHT22;3822;48.784;9.174;2023-02-28T00:33:26;2.20;54.40
7562;DHT22;3822;48.784;9.174;2023-02-28T00:36:00;2.20;55.20
7562;DHT22;3822;48.784;9.174;2023-02-28T00:38:31;2.10;54.60
7562;DHT22;3822;48.784;9.174;2023-02-28T00:40:57;2.10;54.80
7562;DHT22;3822;48.784;9.174;2023-02-28T00:43:31;2.00;54.90
7562;DHT22;3822;48.784;9.174;2023-02-28T00:45:58;2.00;55.00
7562;DHT22;3822;48.784;9.174;2023-02-28T00:48:25;2.00;55.20
7562;DHT22;3822;48.784;9.174;2023-02-28T00:50:52;2.00;55.20
7562;DHT22;3822;48.784;9.174;2023-02-28T00:53:18;2.00;55.20
7562;DHT22;3822;48.784;9.174;2023-02-28T00:55:44;2.00;55.40
7562;DHT22;3822;48.784;9.174;2023-02-28T00:58:10;2.00;55.40
7562;DHT22;3822;48.784;9.174;2023-02-28T01:00:37;2.00;55.50
7562;DHT22;3822;48.784;9.174;2023-02-28T01:03:03;2.30;55.80
7562;DHT22;3822;48.784;9.174;2023-02-28T01:05:30;2.10;55.70
7562;DHT22;3822;48.784;9.174;2023-02-28T01:07:57;2.10;55.70
7562;DHT22;3822;48.784;9.174;2023-02-28T01:10:23;2.10;55.80
7562;DHT22;3822;48.784;9.174;2023-02-28T01:12:51;2.50;56.20
7562;DHT22;3822;48.784;9.174;2023-02-28T01:15:17;2.10;56.00
7562;DHT22;3822;48.784;9.174;2023-02-28T01:17:43;2.00;56.10
7562;DHT22;3822;48.784;9.174;2023-02-28T01:20:10;2.00;56.10
7562;DHT22;3822;48.784;9.174;2023-02-28T01:22:36;2.00;56.30
7562;DHT22;3822;48.784;9.174;2023-02-28T01:25:03;2.00;56.50
7562;DHT22;3822;48.784;9.174;2023-02-28T01:27:30;1.90;56.70
7562;DHT22;3822;48.784;9.174;2023-02-28T01:29:56;1.90;56.70
7562;DHT22;3822;48.784;9.174;2023-02-28T01:32:23;1.90;56.90
7562;DHT22;3822;48.784;9.174;2023-02-28T01:34:49;1.90;56.90
7562;DHT22;3822;48.784;9.174;2023-02-28T01:37:15;1.90;57.10
7562;DHT22;3822;48.784;9.174;2023-02-28T01:39:42;1.90;57.10
7562;DHT22;3822;48.784;9.174;2023-02-28T01:42:09;1.90;57.30
7562;DHT22;3822;48.784;9.174;2023-02-28T01:47:23;1.90;57.30
7562;DHT22;3822;48.784;9.174;2023-02-28T01:49:52;1.90;57.40
7562;DHT22;3822;48.784;9.174;2023-02-28T01:52:18;2.00;57.50
7562;DHT22;3822;48.784;9.174;2023-02-28T01:54:45;2.00;57.70
7562;DHT22;3822;48.784;9.174;2023-02-28T01:57:16;2.00;57.70
7562;DHT22;3822;48.784;9.174;2023-02-28T01:59:47;2.00;57.90
7562;DHT22;3822;48.784;9.174;2023-02-28T02:02:15;1.90;58.00
7562;DHT22;3822;48.784;9.174;2023-02-28T02:04:48;1.90;58.10
7562;DHT22;3822;48.784;9.174;2023-02-28T02:07:16;1.90;58.30
7562;DHT22;3822;48.784;9.174;2023-02-28T02:09:42;1.90;58.60
7562;DHT22;3822;48.784;9.174;2023-02-28T02:12:17;1.80;58.90
7562;DHT22;3822;48.784;9.174;2023-02-28T02:15:00;1.80;59.00
7562;DHT22;3822;48.784;9.174;2023-02-28T02:17:51;1.70;59.00
7562;DHT22;3822;48.784;9.174;2023-02-28T02:26:03;1.60;59.90
7562;DHT22;3822;48.784;9.174;2023-02-28T02:29:17;1.60;59.80
7562;DHT22;3822;48.784;9.174;2023-02-28T02:37:17;1.70;60.20
7562;DHT22;3822;48.784;9.174;2023-02-28T02:45:15;1.70;60.80
7562;DHT22;3822;48.784;9.174;2023-02-28T02:47:44;1.70;61.20
7562;DHT22;3822;48.784;9.174;2023-02-28T02:50:17;1.60;61.40
7562;DHT22;3822;48.784;9.174;2023-02-28T02:52:48;1.60;61.70
7562;DHT22;3822;48.784;9.174;2023-02-28T02:55:19;1.50;62.00
7562;DHT22;3822;48.784;9.174;2023-02-28T02:57:51;1.50;62.30
7562;DHT22;3822;48.784;9.174;2023-02-28T03:00:34;1.40;62.40
7562;DHT22;3822;48.784;9.174;2023-02-28T03:03:03;1.40;62.30
7562;DHT22;3822;48.784;9.174;2023-02-28T03:05:45;1.50;63.10
7562;DHT22;3822;48.784;9.174;2023-02-28T03:08:14;1.50;62.80
7562;DHT22;3822;48.784;9.174;2023-02-28T03:10:41;1.50;63.10
7562;DHT22;3822;48.784;9.174;2023-02-28T03:13:17;1.40;63.40
7562;DHT22;3822;48.784;9.174;2023-02-28T03:24:18;1.20;64.30
7562;DHT22;3822;48.784;9.174;2023-02-28T03:26:52;1.20;65.00
7562;DHT22;3822;48.784;9.174;2023-02-28T03:29:46;1.10;65.00
7562;DHT22;3822;48.784;9.174;2023-02-28T03:35:11;1.20;65.20
7562;DHT22;3822;48.784;9.174;2023-02-28T03:37:41;1.20;65.40
7562;DHT22;3822;48.784;9.174;2023-02-28T03:40:10;1.20;65.90
7562;DHT22;3822;48.784;9.174;2023-02-28T03:42:39;1.20;66.00
7562;DHT22;3822;48.784;9.174;2023-02-28T03:45:11;1.20;65.90
7562;DHT22;3822;48.784;9.174;2023-02-28T03:47:42;1.30;66.10
7562;DHT22;3822;48.784;9.174;2023-02-28T03:50:20;1.20;66.50
7562;DHT22;3822;48.784;9.174;2023-02-28T03:52:50;1.20;66.80
7562;DHT22;3822;48.784;9.174;2023-02-28T03:55:20;1.20;66.50
7562;DHT22;3822;48.784;9.174;2023-02-28T04:00:27;1.30;67.30
7562;DHT22;3822;48.784;9.174;2023-02-28T04:02:57;1.20;67.40
7562;DHT22;3822;48.784;9.174;2023-02-28T04:05:23;1.20;67.40
7562;DHT22;3822;48.784;9.174;2023-02-28T04:07:50;1.20;67.40
7562;DHT22;3822;48.784;9.174;2023-02-28T04:10:16;1.20;67.20
7562;DHT22;3822;48.784;9.174;2023-02-28T04:12:42;1.50;67.80
7562;DHT22;3822;48.784;9.174;2023-02-28T04:15:09;1.30;67.50
7562;DHT22;3822;48.784;9.174;2023-02-28T04:17:37;1.40;67.50
7562;DHT22;3822;48.784;9.174;2023-02-28T04:20:03;1.40;67.40
7562;DHT22;3822;48.784;9.174;2023-02-28T04:22:35;1.40;67.60
7562;DHT22;3822;48.784;9.174;2023-02-28T04:25:02;1.40;67.50
7562;DHT22;3822;48.784;9.174;2023-02-28T04:27:29;1.40;67.50
7562;DHT22;3822;48.784;9.174;2023-02-28T04:29:56;1.50;67.60
7562;DHT22;3822;48.784;9.174;2023-02-28T04:35:09;1.50;67.80
7562;DHT22;3822;48.784;9.174;2023-02-28T04:37:35;1.50;67.80
7562;DHT22;3822;48.784;9.174;2023-02-28T04:40:02;1.50;67.90
7562;DHT22;3822;48.784;9.174;2023-02-28T04:42:29;1.50;67.90
7562;DHT22;3822;48.784;9.174;2023-02-28T04:45:04;1.50;67.70
7562;DHT22;3822;48.784;9.174;2023-02-28T04:47:31;1.60;68.10
7562;DHT22;3822;48.784;9.174;2023-02-28T04:49:57;1.50;68.20
7562;DHT22;3822;48.784;9.174;2023-02-28T04:52:25;3.60;70.50
7562;DHT22;3822;48.784;9.174;2023-02-28T04:54:53;1.40;68.40
7562;DHT22;3822;48.784;9.174;2023-02-28T04:57:19;1.40;68.50
7562;DHT22;3822;48.784;9.174;2023-02-28T04:59:46;1.50;68.70
7562;DHT22;3822;48.784;9.174;2023-02-28T05:02:12;1.50;68.70
7562;DHT22;3822;48.784;9.174;2023-02-28T05:04:38;1.50;68.60
7562;DHT22;3822;48.784;9.174;2023-02-28T05:07:07;3.30;70.40
7562;DHT22;3822;48.784;9.174;2023-02-28T05:09:33;1.50;68.80
7562;DHT22;3822;48.784;9.174;2023-02-28T05:12:00;1.60;68.80
7562;DHT22;3822;48.784;9.174;2023-02-28T05:14:26;1.60;68.90
7562;DHT22;3822;48.784;9.174;2023-02-28T05:16:53;1.60;68.90
7562;DHT22;3822;48.784;9.174;2023-02-28T05:19:19;1.60;68.90
7562;DHT22;3822;48.784;9.174;2023-02-28T05:21:54;1.60;68.90
7562;DHT22;3822;48.784;9.174;2023-02-28T05:24:20;1.70;68.90
7562;DHT22;3822;48.784;9.174;2023-02-28T05:26:52;1.70;69.00
7562;DHT22;3822;48.784;9.174;2023-02-28T05:29:20;1.70;69.10
7562;DHT22;3822;48.784;9.174;2023-02-28T05:31:47;1.60;69.10
7562;DHT22;3822;48.784;9.174;2023-02-28T05:34:16;1.60;69.20
7562;DHT22;3822;48.784;9.174;2023-02-28T05:36:42;1.60;69.20
7562;DHT22;3822;48.784;9.174;2023-02-28T05:39:09;1.70;69.30
7562;DHT22;3822;48.784;9.174;2023-02-28T05:41:39;1.70;69.40
7562;DHT22;3822;48.784;9.174;2023-02-28T05:44:08;1.70;69.50
7562;DHT22;3822;48.784;9.174;2023-02-28T05:46:36;1.60;69.60
7562;DHT22;3822;48.784;9.174;2023-02-28T05:49:03;1.60;69.60
7562;DHT22;3822;48.784;9.174;2023-02-28T05:51:30;1.60;69.80
7562;DHT22;3822;48.784;9.174;2023-02-28T05:54:00;1.60;69.90
7562;DHT22;3822;48.784;9.174;2023-02-28T05:56:27;3.60;72.10
7562;DHT22;3822;48.784;9.174;2023-02-28T05:58:53;1.50;70.40
7562;DHT22;3822;48.784;9.174;2023-02-28T06:04:14;1.50;70.60
7562;DHT22;3822;48.784;9.174;2023-02-28T06:06:44;1.50;71.10
7562;DHT22;3822;48.784;9.174;2023-02-28T06:09:10;1.40;71.10
7562;DHT22;3822;48.784;9.174;2023-02-28T06:11:37;2.50;71.90
7562;DHT22;3822;48.784;9.174;2023-02-28T06:14:04;1.40;71.10
7562;DHT22;3822;48.784;9.174;2023-02-28T06:16:31;1.50;71.40
7562;DHT22;3822;48.784;9.174;2023-02-28T06:19:00;1.60;71.40
7562;DHT22;3822;48.784;9.174;2023-02-28T06:21:27;1.40;71.50
7562;DHT22;3822;48.784;9.174;2023-02-28T06:23:55;1.40;71.70
7562;DHT22;3822;48.784;9.174;2023-02-28T06:26:22;1.40;71.60
7562;DHT22;3822;48.784;9.174;2023-02-28T06:31:36;1.50;71.50
7562;DHT22;3822;48.784;9.174;2023-02-28T06:34:02;1.50;72.40
7562;DHT22;3822;48.784;9.174;2023-02-28T06:36:28;1.60;72.60
7562;DHT22;3822;48.784;9.174;2023-02-28T06:38:57;1.70;72.80
7562;DHT22;3822;48.784;9.174;2023-02-28T06:41:24;1.70;72.80
7562;DHT22;3822;48.784;9.174;2023-02-28T06:43:51;1.80;73.20
7562;DHT22;3822;48.784;9.174;2023-02-28T06:46:19;1.80;72.90
7562;DHT22;3822;48.784;9.174;2023-02-28T06:48:45;1.80;72.90
7562;DHT22;3822;48.784;9.174;2023-02-28T06:51:14;1.80;72.50
7562;DHT22;3822;48.784;9.174;2023-02-28T06:53:43;1.90;72.40
7562;DHT22;3822;48.784;9.174;2023-02-28T06:56:11;1.80;72.00
7562;DHT22;3822;48.784;9.174;2023-02-28T06:58:38;1.80;71.80
7562;DHT22;3822;48.784;9.174;2023-02-28T07:01:06;1.80;71.70
7562;DHT22;3822;48.784;9.174;2023-02-28T07:03:34;1.80;71.80
7562;DHT22;3822;48.784;9.174;2023-02-28T07:06:01;1.80;71.70
7562;DHT22;3822;48.784;9.174;2023-02-28T07:08:32;1.90;71.80
7562;DHT22;3822;48.784;9.174;2023-02-28T07:11:02;1.90;72.40
7562;DHT22;3822;48.784;9.174;2023-02-28T07:13:30;1.90;72.40
7562;DHT22;3822;48.784;9.174;2023-02-28T07:16:01;1.90;72.30
7562;DHT22;3822;48.784;9.174;2023-02-28T07:18:30;1.90;72.40
7562;DHT22;3822;48.784;9.174;2023-02-28T07:20:56;1.90;72.40
7562;DHT22;3822;48.784;9.174;2023-02-28T07:23:23;2.00;72.20
7562;DHT22;3822;48.784;9.174;2023-02-28T07:25:50;2.00;72.10
7562;DHT22;3822;48.784;9.174;2023-02-28T07:28:17;2.00;71.90
7562;DHT22;3822;48.784;9.174;2023-02-28T07:30:43;2.10;72.70
7562;DHT22;3822;48.784;9.174;2023-02-28T07:33:09;2.10;72.00
7562;DHT22;3822;48.784;9.174;2023-02-28T07:35:36;2.20;72.00
7562;DHT22;3822;48.784;9.174;2023-02-28T07:38:02;2.20;71.90
7562;DHT22;3822;48.784;9.174;2023-02-28T07:40:29;2.20;71.80
7562;DHT22;3822;48.784;9.174;2023-02-28T07:42:58;2.30;72.70
7562;DHT22;3822;48.784;9.174;2023-02-28T07:45:25;2.30;72.50
7562;DHT22;3822;48.784;9.174;2023-02-28T07:47:51;2.30;72.30
7562;DHT22;3822;48.784;9.174;2023-02-28T07:50:17;2.30;72.80
7562;DHT22;3822;48.784;9.174;2023-02-28T07:52:44;2.30;72.90
7562;DHT22;3822;48.784;9.174;2023-02-28T07:55:10;2.40;72.40
7562;DHT22;3822;48.784;9.174;2023-02-28T07:57:36;2.40;72.10
7562;DHT22;3822;48.784;9.174;2023-02-28T08:00:03;2.40;71.80
7562;DHT22;3822;48.784;9.174;2023-02-28T08:05:15;2.30;71.00
7562;DHT22;3822;48.784;9.174;2023-02-28T08:07:42;2.30;71.00
7562;DHT22;3822;48.784;9.174;2023-02-28T08:10:09;2.40;71.20
7562;DHT22;3822;48.784;9.174;2023-02-28T08:12:36;2.40;70.90
7562;DHT22;3822;48.784;9.174;2023-02-28T08:15:02;2.40;70.60
7562;DHT22;3822;48.784;9.174;2023-02-28T08:17:29;2.40;70.60
7562;DHT22;3822;48.784;9.174;2023-02-28T08:19:55;2.50;70.20
7562;DHT22;3822;48.784;9.174;2023-02-28T08:22:21;2.50;70.10
7562;DHT22;3822;48.784;9.174;2023-02-28T08:24:48;2.50;69.70
7562;DHT22;3822;48.784;9.174;2023-02-28T08:27:15;2.50;69.80
7562;DHT22;3822;48.784;9.174;2023-02-28T08:29:41;2.60;69.90
7562;DHT22;3822;48.784;9.174;2023-02-28T08:32:07;4.90;71.50
7562;DHT22;3822;48.784;9.174;2023-02-28T08:34:34;2.60;69.10
7562;DHT22;3822;48.784;9.174;2023-02-28T08:37:00;2.50;69.10
7562;DHT22;3822;48.784;9.174;2023-02-28T08:39:26;2.50;70.00
7562;DHT22;3822;48.784;9.174;2023-02-28T08:41:52;2.60;70.90
7562;DHT22;3822;48.784;9.174;2023-02-28T08:44:19;2.70;71.30
7562;DHT22;3822;48.784;9.174;2023-02-28T08:46:45;2.70;71.30
7562;DHT22;3822;48.784;9.174;2023-02-28T08:49:11;2.80;70.60
7562;DHT22;3822;48.784;9.174;2023-02-28T08:51:39;2.80;70.10
7562;DHT22;3822;48.784;9.174;2023-02-28T08:54:05;2.80;69.90
7562;DHT22;3822;48.784;9.174;2023-02-28T08:56:31;2.80;69.50
7562;DHT22;3822;48.784;9.174;2023-02-28T08:58:58;2.80;68.90
7562;DHT22;3822;48.784;9.174;2023-02-28T09:01:26;2.70;68.60
7562;DHT22;3822;48.784;9.174;2023-02-28T09:03:54;2.70;68.70
7562;DHT22;3822;48.784;9.174;2023-02-28T09:06:22;2.70;68.60
7562;DHT22;3822;48.784;9.174;2023-02-28T09:08:51;2.70;68.70
7562;DHT22;3822;48.784;9.174;2023-02-28T09:11:18;2.80;68.60
7562;DHT22;3822;48.784;9.174;2023-02-28T09:13:45;2.80;68.60
7562;DHT22;3822;48.784;9.174;2023-02-28T09:16:12;2.80;68.50
7562;DHT22;3822;48.784;9.174;2023-02-28T09:18:39;2.90;68.60
7562;DHT22;3822;48.784;9.174;2023-02-28T09:21:07;3.00;68.40
7562;DHT22;3822;48.784;9.174;2023-02-28T09:23:35;3.00;68.30
7562;DHT22;3822;48.784;9.174;2023-02-28T09:26:04;3.00;67.90
7562;DHT22;3822;48.784;9.174;2023-02-28T09:28:31;3.00;67.60
7562;DHT22;3822;48.784;9.174;2023-02-28T09:30:57;3.00;67.50
7562;DHT22;3822;48.784;9.174;2023-02-28T09:33:24;3.00;67.60
7562;DHT22;3822;48.784;9.174;2023-02-28T09:35:57;3.10;67.80
7562;DHT22;3822;48.784;9.174;2023-02-28T09:38:24;3.10;67.70
7562;DHT22;3822;48.784;9.174;2023-02-28T09:40:55;3.10;67.40
7562;DHT22;3822;48.784;9.174;2023-02-28T09:43:26;3.10;67.50
7562;DHT22;3822;48.784;9.174;2023-02-28T09:48:53;3.20;66.80
7562;DHT22;3822;48.784;9.174;2023-02-28T09:54:17;3.00;66.40
7562;DHT22;3822;48.784;9.174;2023-02-28T09:56:50;3.00;66.80
7562;DHT22;3822;48.784;9.174;2023-02-28T09:59:23;3.00;66.90
7562;DHT22;3822;48.784;9.174;2023-02-28T10:07:33;3.10;66.70
7562;DHT22;3822;48.784;9.174;2023-02-28T10:10:10;3.10;66.70
7562;DHT22;3822;48.784;9.174;2023-02-28T10:12:43;3.10;66.50
7562;DHT22;3822;48.784;9.174;2023-02-28T10:15:15;3.10;66.60
7562;DHT22;3822;48.784;9.174;2023-02-28T10:17:47;3.20;66.70
7562;DHT22;3822;48.784;9.174;2023-02-28T10:20:17;3.20;66.60
7562;DHT22;3822;48.784;9.174;2023-02-28T10:22:59;3.30;66.40
7562;DHT22;3822;48.784;9.174;2023-02-28T10:25:27;4.00;67.00
7562;DHT22;3822;48.784;9.174;2023-02-28T10:27:59;3.40;66.50
7562;DHT22;3822;48.784;9.174;2023-02-28T10:30:27;3.40;66.30
7562;DHT22;3822;48.784;9.174;2023-02-28T10:32:54;3.50;66.30
7562;DHT22;3822;48.784;9.174;2023-02-28T10:35:22;3.50;66.20
7562;DHT22;3822;48.784;9.174;2023-02-28T10:37:50;3.60;65.80
7562;DHT22;3822;48.784;9.174;2023-02-28T10:45:22;3.60;65.60
7562;DHT22;3822;48.784;9.174;2023-02-28T10:50:29;3.70;65.50
7562;DHT22;3822;48.784;9.174;2023-02-28T10:58:31;3.80;65.40
7562;DHT22;3822;48.784;9.174;2023-02-28T11:01:00;3.90;65.10
7562;DHT22;3822;48.784;9.174;2023-02-28T11:03:32;4.00;64.90
7562;DHT22;3822;48.784;9.174;2023-02-28T11:06:07;4.10;65.00
7562;DHT22;3822;48.784;9.174;2023-02-28T11:09:15;4.00;64.60
7562;DHT22;3822;48.784;9.174;2023-02-28T11:11:41;4.10;64.80
7562;DHT22;3822;48.784;9.174;2023-02-28T11:14:18;4.20;64.70
7562;DHT22;3822;48.784;9.174;2023-02-28T11:16:50;4.30;64.20
7562;DHT22;3822;48.784;9.174;2023-02-28T11:19:25;4.40;64.10
7562;DHT22;3822;48.784;9.174;2023-02-28T11:22:00;4.50;64.00
7562;DHT22;3822;48.784;9.174;2023-02-28T11:24:29;4.60;63.70
7562;DHT22;3822;48.784;9.174;2023-02-28T11:30:22;4.80;62.80
7562;DHT22;3822;48.784;9.174;2023-02-28T11:32:58;4.90;62.70
7562;DHT22;3822;48.784;9.174;2023-02-28T11:35:26;5.00;62.50
7562;DHT22;3822;48.784;9.174;2023-02-28T11:37:58;5.20;62.30
7562;DHT22;3822;48.784;9.174;2023-02-28T11:40:28;5.30;62.10
7562;DHT22;3822;48.784;9.174;2023-02-28T11:43:01;5.50;61.60
7562;DHT22;3822;48.784;9.174;2023-02-28T11:51:34;5.90;61.00
7562;DHT22;3822;48.784;9.174;2023-02-28T11:54:51;6.10;60.90
7562;DHT22;3822;48.784;9.174;2023-02-28T12:00:19;6.30;59.60
7562;DHT22;3822;48.784;9.174;2023-02-28T12:03:03;6.40;59.90
7562;DHT22;3822;48.784;9.174;2023-02-28T12:05:46;6.60;60.00
7562;DHT22;3822;48.784;9.174;2023-02-28T12:10:59;6.90;59.50
7562;DHT22;3822;48.784;9.174;2023-02-28T12:27:22;7.70;58.80
7562;DHT22;3822;48.784;9.174;2023-02-28T12:29:55;7.90;58.80
7562;DHT22;3822;48.784;9.174;2023-02-28T12:32:30;8.10;58.30
7562;DHT22;3822;48.784;9.174;2023-02-28T12:35:02;8.20;58.30
7562;DHT22;3822;48.784;9.174;2023-02-28T12:38:17;8.40;56.70
7562;DHT22;3822;48.784;9.174;2023-02-28T12:40:32;8.50;56.90
7562;DHT22;3822;48.784;9.174;2023-02-28T12:43:07;8.70;55.40
7562;DHT22;3822;48.784;9.174;2023-02-28T12:48:08;8.90;55.30
7562;DHT22;3822;48.784;9.174;2023-02-28T12:50:37;9.10;55.10
7562;DHT22;3822;48.784;9.174;2023-02-28T12:55:41;9.40;54.50
7562;DHT22;3822;48.784;9.174;2023-02-28T13:09:52;10.30;52.40
7562;DHT22;3822;48.784;9.174;2023-02-28T13:12:20;10.50;53.10
7562;DHT22;3822;48.784;9.174;2023-02-28T13:14:48;10.70;52.80
7562;DHT22;3822;48.784;9.174;2023-02-28T13:17:19;10.80;51.20
7562;DHT22;3822;48.784;9.174;2023-02-28T13:19:55;11.00;51.70
7562;DHT22;3822;48.784;9.174;2023-02-28T13:27:48;11.60;49.80
7562;DHT22;3822;48.784;9.174;2023-02-28T13:31:21;11.60;49.30
7562;DHT22;3822;48.784;9.174;2023-02-28T13:33:31;11.80;49.90
7562;DHT22;3822;48.784;9.174;2023-02-28T13:38:43;12.00;48.90
7562;DHT22;3822;48.784;9.174;2023-02-28T13:46:27;12.10;47.70
7562;DHT22;3822;48.784;9.174;2023-02-28T13:48:54;12.10;48.20
7562;DHT22;3822;48.784;9.174;2023-02-28T13:54:11;12.40;48.00
7562;DHT22;3822;48.784;9.174;2023-02-28T13:59:28;12.50;46.70
7562;DHT22;3822;48.784;9.174;2023-02-28T14:07:18;13.00;47.00
7562;DHT22;3822;48.784;9.174;2023-02-28T14:09:52;13.10;45.40
7562;DHT22;3822;48.784;9.174;2023-02-28T14:17:59;13.50;46.00
7562;DHT22;3822;48.784;9.174;2023-02-28T14:20:29;13.50;45.10
7562;DHT22;3822;48.784;9.174;2023-02-28T14:23:08;13.70;45.40
7562;DHT22;3822;48.784;9.174;2023-02-28T14:36:30;14.30;44.40
7562;DHT22;3822;48.784;9.174;2023-02-28T14:39:32;14.40;43.70
7562;DHT22;3822;48.784;9.174;2023-02-28T14:41:51;14.50;43.60
7562;DHT22;3822;48.784;9.174;2023-02-28T14:47:04;14.70;42.90
7562;DHT22;3822;48.784;9.174;2023-02-28T14:49:45;14.80;43.00
7562;DHT22;3822;48.784;9.174;2023-02-28T14:52:15;14.90;42.30
7562;DHT22;3822;48.784;9.174;2023-02-28T14:54:45;14.90;41.50
7562;DHT22;3822;48.784;9.174;2023-02-28T14:57:24;14.90;41.10
7562;DHT22;3822;48.784;9.174;2023-02-28T15:02:40;15.00;41.60
7562;DHT22;3822;48.784;9.174;2023-02-28T15:05:19;15.00;39.60
7562;DHT22;3822;48.784;9.174;2023-02-28T15:08:00;15.00;40.70
7562;DHT22;3822;48.784;9.174;2023-02-28T15:10:31;15.10;41.10
7562;DHT22;3822;48.784;9.174;2023-02-28T15:20:51;15.40;40.60
7562;DHT22;3822;48.784;9.174;2023-02-28T15:23:19;15.50;40.50
7562;DHT22;3822;48.784;9.174;2023-02-28T15:25:46;15.50;39.90
7562;DHT22;3822;48.784;9.174;2023-02-28T15:28:14;15.40;39.70
7562;DHT22;3822;48.784;9.174;2023-02-28T15:30:50;15.40;39.80
7562;DHT22;3822;48.784;9.174;2023-02-28T15:33:34;15.50;40.00
7562;DHT22;3822;48.784;9.174;2023-02-28T15:36:11;15.50;39.80
7562;DHT22;3822;48.784;9.174;2023-02-28T15:38:40;15.50;39.70
7562;DHT22;3822;48.784;9.174;2023-02-28T15:41:20;15.50;39.50
7562;DHT22;3822;48.784;9.174;2023-02-28T15:46:42;15.50;39.30
7562;DHT22;3822;48.784;9.174;2023-02-28T15:52:04;14.80;38.50
7562;DHT22;3822;48.784;9.174;2023-02-28T15:54:32;15.40;39.10
7562;DHT22;3822;48.784;9.174;2023-02-28T15:57:03;15.50;39.10
7562;DHT22;3822;48.784;9.174;2023-02-28T15:59:35;15.50;39.00
7562;DHT22;3822;48.784;9.174;2023-02-28T16:04:35;15.30;38.20
7562;DHT22;3822;48.784;9.174;2023-02-28T16:07:05;15.30;38.10
7562;DHT22;3822;48.784;9.174;2023-02-28T16:09:39;15.30;37.80
7562;DHT22;3822;48.784;9.174;2023-02-28T16:12:08;15.30;38.10
7562;DHT22;3822;48.784;9.174;2023-02-28T16:14:39;15.40;38.00
7562;DHT22;3822;48.784;9.174;2023-02-28T16:17:07;15.40;37.70
7562;DHT22;3822;48.784;9.174;2023-02-28T16:19:36;15.40;37.40
7562;DHT22;3822;48.784;9.174;2023-02-28T16:22:02;15.40;37.50
7562;DHT22;3822;48.784;9.174;2023-02-28T16:24:28;15.20;36.50
7562;DHT22;3822;48.784;9.174;2023-02-28T16:26:55;15.00;36.80
7562;DHT22;3822;48.784;9.174;2023-02-28T16:29:24;14.80;37.20
7562;DHT22;3822;48.784;9.174;2023-02-28T16:31:53;14.60;37.30
7562;DHT22;3822;48.784;9.174;2023-02-28T16:34:20;14.40;37.50
7562;DHT22;3822;48.784;9.174;2023-02-28T16:36:47;14.20;37.60
7562;DHT22;3822;48.784;9.174;2023-02-28T16:39:15;14.00;37.70
7562;DHT22;3822;48.784;9.174;2023-02-28T16:41:42;13.80;37.70
7562;DHT22;3822;48.784;9.174;2023-02-28T16:44:10;13.50;37.80
7562;DHT22;3822;48.784;9.174;2023-02-28T16:46:39;13.40;38.00
7562;DHT22;3822;48.784;9.174;2023-02-28T16:49:10;13.00;37.70
7562;DHT22;3822;48.784;9.174;2023-02-28T16:51:37;12.80;38.20
7562;DHT22;3822;48.784;9.174;2023-02-28T16:54:04;12.60;38.50
7562;DHT22;3822;48.784;9.174;2023-02-28T16:56:30;12.40;38.60
7562;DHT22;3822;48.784;9.174;2023-02-28T16:58:59;12.30;38.90
7562;DHT22;3822;48.784;9.174;2023-02-28T17:01:26;12.20;39.10
7562;DHT22;3822;48.784;9.174;2023-02-28T17:03:53;12.00;39.30
7562;DHT22;3822;48.784;9.174;2023-02-28T17:06:20;11.90;39.40
7562;DHT22;3822;48.784;9.174;2023-02-28T17:08:49;11.80;39.50
7562;DHT22;3822;48.784;9.174;2023-02-28T17:11:16;11.60;39.60
7562;DHT22;3822;48.784;9.174;2023-02-28T17:13:43;13.40;41.50
7562;DHT22;3822;48.784;9.174;2023-02-28T17:16:22;11.40;39.90
7562;DHT22;3822;48.784;9.174;2023-02-28T17:18:57;11.30;40.00
7562;DHT22;3822;48.784;9.174;2023-02-28T17:21:27;11.10;40.20
7562;DHT22;3822;48.784;9.174;2023-02-28T17:23:53;11.00;40.40
7562;DHT22;3822;48.784;9.174;2023-02-28T17:26:20;10.90;40.60
7562;DHT22;3822;48.784;9.174;2023-02-28T17:28:47;10.80;40.80
7562;DHT22;3822;48.784;9.174;2023-02-28T17:31:14;10.70;41.00
7562;DHT22;3822;48.784;9.174;2023-02-28T17:33:40;10.60;41.10
7562;DHT22;3822;48.784;9.174;2023-02-28T17:36:09;10.50;41.20
7562;DHT22;3822;48.784;9.174;2023-02-28T17:38:41;9.70;41.60
7562;DHT22;3822;48.784;9.174;2023-02-28T17:41:09;10.20;41.50
7562;DHT22;3822;48.784;9.174;2023-02-28T17:43:36;10.10;41.80
7562;DHT22;3822;48.784;9.174;2023-02-28T17:46:02;10.00;41.90
7562;DHT22;3822;48.784;9.174;2023-02-28T17:48:31;9.90;43.00
7562;DHT22;3822;48.784;9.174;2023-02-28T17:50:58;9.80;43.20
7562;DHT22;3822;48.784;9.174;2023-02-28T17:53:24;9.70;43.30
7562;DHT22;3822;48.784;9.174;2023-02-28T17:55:52;9.70;43.60
7562;DHT22;3822;48.784;9.174;2023-02-28T17:58:19;9.60;43.70
7562;DHT22;3822;48.784;9.174;2023-02-28T18:00:45;9.60;43.90
7562;DHT22;3822;48.784;9.174;2023-02-28T18:03:13;9.50;44.10
7562;DHT22;3822;48.784;9.174;2023-02-28T18:05:40;9.40;44.30
7562;DHT22;3822;48.784;9.174;2023-02-28T18:08:08;9.30;44.50
7562;DHT22;3822;48.784;9.174;2023-02-28T18:10:35;9.20;44.60
7562;DHT22;3822;48.784;9.174;2023-02-28T18:13:01;9.10;44.90
7562;DHT22;3822;48.784;9.174;2023-02-28T18:15:29;9.20;45.20
7562;DHT22;3822;48.784;9.174;2023-02-28T18:17:55;9.00;45.30
7562;DHT22;3822;48.784;9.174;2023-02-28T18:20:22;8.90;45.30
7562;DHT22;3822;48.784;9.174;2023-02-28T18:22:48;8.90;45.40
7562;DHT22;3822;48.784;9.174;2023-02-28T18:25:14;8.80;45.50
7562;DHT22;3822;48.784;9.174;2023-02-28T18:27:43;8.80;45.70
7562;DHT22;3822;48.784;9.174;2023-02-28T18:30:19;8.70;45.80
7562;DHT22;3822;48.784;9.174;2023-02-28T18:32:46;8.60;46.10
7562;DHT22;3822;48.784;9.174;2023-02-28T18:35:13;8.50;46.20
7562;DHT22;3822;48.784;9.174;2023-02-28T18:37:39;8.40;46.40
7562;DHT22;3822;48.784;9.174;2023-02-28T18:40:06;8.20;46.60
7562;DHT22;3822;48.784;9.174;2023-02-28T18:42:32;8.10;47.10
7562;DHT22;3822;48.784;9.174;2023-02-28T18:44:59;8.00;47.10
7562;DHT22;3822;48.784;9.174;2023-02-28T18:47:25;7.90;47.30
7562;DHT22;3822;48.784;9.174;2023-02-28T18:49:51;7.80;47.50
7562;DHT22;3822;48.784;9.174;2023-02-28T18:52:17;7.70;47.60
7562;DHT22;3822;48.784;9.174;2023-02-28T18:54:44;7.60;48.00
7562;DHT22;3822;48.784;9.174;2023-02-28T18:57:10;7.50;48.30
7562;DHT22;3822;48.784;9.174;2023-02-28T18:59:36;7.30;48.70
7562;DHT22;3822;48.784;9.174;2023-02-28T19:02:03;7.20;48.80
7562;DHT22;3822;48.784;9.174;2023-02-28T19:04:29;7.10;48.90
7562;DHT22;3822;48.784;9.174;2023-02-28T19:06:56;7.00;49.00
7562;DHT22;3822;48.784;9.174;2023-02-28T19:09:23;7.00;49.20
7562;DHT22;3822;48.784;9.174;2023-02-28T19:11:49;7.00;49.30
7562;DHT22;3822;48.784;9.174;2023-02-28T19:14:15;7.00;49.40
7562;DHT22;3822;48.784;9.174;2023-02-28T19:16:41;7.00;49.40
7562;DHT22;3822;48.784;9.174;2023-02-28T19:19:08;7.00;49.50
7562;DHT22;3822;48.784;9.174;2023-02-28T19:21:34;7.00;49.60
7562;DHT22;3822;48.784;9.174;2023-02-28T19:24:01;7.00;49.60
7562;DHT22;3822;48.784;9.174;2023-02-28T19:26:28;7.00;49.60